createdAt,value
2019-03-31T18:51:25.028Z,2.13
2019-03-31T18:54:07.977Z,2.04
2019-03-31T18:56:56.277Z,1.99
2019-03-31T18:59:45.013Z,2.18
2019-03-31T19:02:52.779Z,1.99
2019-03-31T19:05:38.734Z,1.70
2019-03-31T19:08:55.602Z,1.63
2019-03-31T19:12:00.456Z,1.62
2019-03-31T19:14:36.106Z,1.61
2019-03-31T19:17:42.500Z,1.39
2019-03-31T19:20:30.806Z,1.19
2019-03-31T19:23:24.433Z,1.13
2019-03-31T19:26:47.754Z,0.95
2019-03-31T19:29:39.279Z,0.85
2019-03-31T19:32:59.663Z,0.75
2019-03-31T19:35:37.116Z,0.71
2019-03-31T19:38:15.608Z,0.71
2019-03-31T19:41:15.424Z,0.63
2019-03-31T19:44:09.448Z,0.50
2019-03-31T19:46:55.974Z,0.50
2019-03-31T19:49:47.998Z,0.40
2019-03-31T19:52:55.602Z,0.38
2019-03-31T19:55:37.461Z,0.49
2019-03-31T19:59:03.329Z,0.51
2019-03-31T20:03:23.658Z,0.51
2019-03-31T20:07:44.962Z,0.51
2019-03-31T20:10:32.518Z,0.59
2019-03-31T20:13:20.450Z,0.59
2019-03-31T20:16:23.228Z,0.51
2019-03-31T20:19:39.169Z,0.56
2019-03-31T20:21:42.270Z,0.18
2019-03-31T20:24:23.144Z,0.23
2019-03-31T20:27:01.623Z,0.23
2019-03-31T20:30:02.771Z,0.11
2019-03-31T20:32:44.200Z,-0.09
2019-03-31T20:35:27.380Z,-0.34
2019-03-31T20:38:19.857Z,-0.34
2019-03-31T20:41:03.209Z,-0.40
2019-03-31T20:43:40.187Z,-0.44
2019-03-31T20:46:10.562Z,-0.45
2019-03-31T20:48:41.373Z,-0.58
2019-03-31T20:51:12.194Z,-0.71
2019-03-31T20:53:42.789Z,-0.66
2019-03-31T20:56:13.262Z,-0.65
2019-03-31T20:58:48.127Z,-0.82
2019-03-31T21:01:20.415Z,-0.77
2019-03-31T21:03:50.973Z,-0.85
2019-03-31T21:06:23.761Z,-0.90
2019-03-31T21:08:54.233Z,-0.97
2019-03-31T21:11:24.580Z,-0.95
2019-03-31T21:13:57.042Z,-1.01
2019-03-31T21:16:27.179Z,-0.94
2019-03-31T21:18:57.779Z,-0.89
2019-03-31T21:21:28.317Z,-1.22
2019-03-31T21:23:59.119Z,-1.91
2019-03-31T21:26:29.969Z,-0.99
2019-03-31T21:29:02.840Z,-0.98
2019-03-31T21:31:33.359Z,-0.98
2019-03-31T21:34:03.785Z,-1.12
2019-03-31T21:36:52.649Z,-1.17
2019-03-31T21:39:23.016Z,-0.99
2019-03-31T21:41:53.511Z,-1.02
2019-03-31T21:44:24.433Z,-1.10
2019-03-31T21:47:00.919Z,-1.09
2019-03-31T21:49:37.778Z,-1.15
2019-03-31T21:52:08.248Z,-1.11
2019-03-31T21:54:43.352Z,-1.33
2019-03-31T21:57:14.086Z,-1.20
2019-03-31T21:59:44.606Z,-1.18
2019-03-31T22:02:14.911Z,-1.07
2019-03-31T22:04:45.268Z,-1.06
2019-03-31T22:07:17.883Z,-1.01
2019-03-31T22:09:48.318Z,-1.22
2019-03-31T22:12:18.797Z,-1.24
2019-03-31T22:14:50.047Z,-1.21
2019-03-31T22:17:20.498Z,-1.32
2019-03-31T22:19:50.919Z,-1.08
2019-03-31T22:22:21.492Z,-1.10
2019-03-31T22:24:51.844Z,-1.22
2019-03-31T22:27:23.793Z,-1.25
2019-03-31T22:29:54.183Z,-1.37
2019-03-31T22:32:24.557Z,-1.40
2019-03-31T22:34:55.031Z,-1.47
2019-03-31T22:37:25.433Z,-1.43
2019-03-31T22:39:55.981Z,-1.42
2019-03-31T22:42:26.382Z,-1.44
2019-03-31T22:44:56.851Z,-1.40
2019-03-31T22:47:27.305Z,-1.45
2019-03-31T22:49:59.413Z,-1.50
2019-03-31T22:52:29.897Z,-1.51
2019-03-31T22:55:00.395Z,-1.60
2019-03-31T22:57:30.686Z,-1.60
2019-03-31T23:00:02.482Z,-1.53
2019-03-31T23:02:32.822Z,-1.64
2019-03-31T23:05:03.328Z,-1.43
2019-03-31T23:07:33.771Z,-1.49
2019-03-31T23:10:04.425Z,-1.53
2019-03-31T23:12:34.830Z,-1.56
2019-03-31T23:15:05.359Z,-1.63
2019-03-31T23:17:54.446Z,-1.73
2019-03-31T23:20:24.794Z,-1.77
2019-03-31T23:22:55.252Z,-1.64
2019-03-31T23:25:25.628Z,-1.70
2019-03-31T23:27:56.003Z,-1.64
2019-03-31T23:30:26.468Z,-1.68
2019-03-31T23:32:56.861Z,-1.71
2019-03-31T23:35:27.291Z,-1.64
2019-03-31T23:37:57.674Z,-1.88
2019-03-31T23:40:28.039Z,-1.62
2019-03-31T23:42:59.485Z,-1.59
2019-03-31T23:45:32.372Z,-1.62
2019-03-31T23:48:01.890Z,-1.52
2019-03-31T23:50:32.345Z,-1.53
2019-03-31T23:53:02.714Z,-1.61
2019-03-31T23:55:33.143Z,-1.78
2019-03-31T23:58:03.520Z,-1.76
